Morgan Mill, TX (76465)

1:55 PM CST on February 13, 2016 (GMT -0600)
C Bear Ridge | | Change Station
CLOSE
Current Station
Personal Weather Station
Location: Morgan Mill, TX
Elevation: 1250 ft
Nearby Weather Stations

Elev 1250 ft 32.40 °N, 98.19 °W | Updated 2 seconds ago

Clear
Clear
69.1 °F
Feels Like 69.1 °F
N
0.0
Wind Variable Wind from East
Gusts 6.0 mph

Today
High -- | Low -- °F
--% Chance of Precip.
Yesterday
High -- | Low -- °F
Precip. -- in
Pressure 30.27 in
Visibility 10.0 miles
Clouds Clear
Dew Point 46 °F
Humidity 43%
Rainfall 0.00 in
Snow Depth Not available.
7:17 AM 6:16 PM
Waxing Crescent, 33% visible
METAR KSEP 131935Z AUTO 14007KT 10SM CLR 20/06 A3027 RMK AO2 T02020061
Pressure 30.27 in
Visibility 10.0 miles
Clouds Clear
Dew Point 46 °F
Humidity 43%
Rainfall 0.00 in
Snow Depth Not available.
7:17 AM 6:16 PM
Waxing Crescent, 33% visible
METAR KSEP 131935Z AUTO 14007KT 10SM CLR 20/06 A3027 RMK AO2 T02020061

10-Day Weather Forecast

Almanac

Astronomy

Feb. 13, 2016 Rise Set
Actual Time
Civil Twilight
Nautical Twilight
Astronomical Twilight
Moon
Length of Visible Light
Length of Day
Tomorrow will be .
, % of the Moon is Illuminated

Today's Extremes

State Highs State Lows

Community

WunderPhotos

Upload Photos

1,892,642 photos uploaded!

WunderBlog® & News

Nearby

Air Quality

  Air Quality AQ Index Pollutant
Not available.

Snow Depth

Station Depth Elevation

Earthquake Activity

City Distance Mag. Time & Date
Minimum magnitude displayed is 2.5.

Coastal Water Temperatures

Place Temperature

Stations

Nearby Weather Stations

Station Location Temp. Windchill Dew Point Humidity Wind Precip. Elev Updated Type
                   

Watches & Warnings

There are currently no watches in effect.